createdAt,value
2022-10-30T00:00:33.193Z,93.08
2022-10-30T00:03:01.347Z,92.99
2022-10-30T00:05:29.424Z,93.15
2022-10-30T00:07:57.352Z,92.74
2022-10-30T00:10:25.854Z,93.91
2022-10-30T00:12:53.264Z,93.19
2022-10-30T00:15:22.091Z,93.33
2022-10-30T00:17:49.566Z,93.07
2022-10-30T00:20:17.075Z,94.31
2022-10-30T00:22:44.455Z,93.64
2022-10-30T00:25:11.866Z,94.22
2022-10-30T00:27:39.284Z,93.54
2022-10-30T00:30:07.856Z,92.87
2022-10-30T00:32:36.540Z,93.16
2022-10-30T00:35:04.630Z,94.51
2022-10-30T00:37:31.999Z,94.33
2022-10-30T00:39:59.383Z,94.31
2022-10-30T00:42:30.135Z,93.72
2022-10-30T00:44:57.682Z,93.59
2022-10-30T00:47:28.702Z,93.75
2022-10-30T00:50:01.956Z,92.78
2022-10-30T00:52:32.639Z,92.51
2022-10-30T00:55:04.048Z,92.90
2022-10-30T00:57:31.503Z,93.46
2022-10-30T00:59:58.880Z,93.52
2022-10-30T01:02:27.207Z,93.20
2022-10-30T01:04:55.895Z,93.73
2022-10-30T01:07:24.899Z,94.41
2022-10-30T01:09:52.320Z,94.34
2022-10-30T01:12:19.716Z,94.87
2022-10-30T01:14:53.516Z,92.83
2022-10-30T01:17:58.449Z,93.20
2022-10-30T01:20:51.330Z,93.19
2022-10-30T01:23:34.985Z,93.69
2022-10-30T01:26:12.376Z,94.54
2022-10-30T01:29:04.006Z,94.13
2022-10-30T01:31:42.053Z,94.03
2022-10-30T01:34:18.595Z,93.71
2022-10-30T01:36:50.583Z,95.20
2022-10-30T01:39:23.481Z,94.22
2022-10-30T01:41:51.162Z,94.96
2022-10-30T01:44:21.818Z,95.82
2022-10-30T01:47:01.823Z,95.68
2022-10-30T01:49:47.116Z,95.11
2022-10-30T01:52:19.947Z,95.33
2022-10-30T01:54:54.739Z,94.80
2022-10-30T01:57:34.825Z,93.74
2022-10-30T02:00:05.527Z,93.72
2022-10-30T02:02:33.777Z,94.00
2022-10-30T02:05:01.939Z,94.56
2022-10-30T02:07:29.442Z,94.33
2022-10-30T02:09:58.243Z,95.46
2022-10-30T02:12:26.481Z,95.06
2022-10-30T02:14:57.695Z,95.52
2022-10-30T02:17:26.445Z,94.71
2022-10-30T02:19:53.839Z,94.56
2022-10-30T02:22:22.873Z,94.47
2022-10-30T02:24:50.301Z,95.06
2022-10-30T02:27:17.757Z,94.73
2022-10-30T02:29:45.144Z,94.65
2022-10-30T02:32:12.559Z,94.91
2022-10-30T02:34:39.930Z,94.75
2022-10-30T02:37:07.319Z,94.72
2022-10-30T02:39:36.027Z,94.11
2022-10-30T02:42:03.443Z,93.90
2022-10-30T02:44:30.802Z,94.76
2022-10-30T02:46:58.223Z,95.87
2022-10-30T02:49:25.603Z,94.94
2022-10-30T02:51:53.054Z,94.59
2022-10-30T02:54:20.454Z,94.61
2022-10-30T02:56:49.212Z,94.85
2022-10-30T02:59:16.576Z,94.96
2022-10-30T03:01:44.160Z,95.26
2022-10-30T03:04:11.621Z,94.58
2022-10-30T03:06:39.039Z,94.89
2022-10-30T03:09:06.551Z,94.97
2022-10-30T03:11:35.468Z,94.47
2022-10-30T03:14:04.403Z,94.58
2022-10-30T03:16:33.503Z,95.71
2022-10-30T03:19:01.030Z,94.25
2022-10-30T03:21:28.916Z,93.60
2022-10-30T03:23:56.952Z,93.87
2022-10-30T03:26:24.674Z,93.34
2022-10-30T03:28:52.085Z,93.96
2022-10-30T03:31:21.033Z,95.12
2022-10-30T03:33:48.511Z,94.85
2022-10-30T03:36:16.363Z,95.13
2022-10-30T03:38:44.115Z,94.53
2022-10-30T03:41:11.486Z,93.90
2022-10-30T03:43:38.873Z,93.50
2022-10-30T03:46:06.617Z,93.06
2022-10-30T03:48:36.108Z,92.98
2022-10-30T03:51:03.514Z,93.23
2022-10-30T03:53:31.163Z,94.25
2022-10-30T03:56:00.150Z,94.23
2022-10-30T03:58:27.814Z,95.02
2022-10-30T04:00:55.288Z,94.27
2022-10-30T04:03:22.711Z,93.85
2022-10-30T04:05:53.782Z,93.21
2022-10-30T04:08:21.178Z,93.10
2022-10-30T04:10:48.910Z,92.75
2022-10-30T04:13:18.706Z,93.64
2022-10-30T04:15:46.084Z,92.63
2022-10-30T04:18:16.243Z,92.88
2022-10-30T04:20:44.182Z,92.55
2022-10-30T04:23:16.826Z,92.78
2022-10-30T04:25:44.590Z,91.99
2022-10-30T04:28:12.578Z,91.48
2022-10-30T04:30:40.556Z,92.64
2022-10-30T04:33:11.008Z,92.54
2022-10-30T04:35:38.707Z,92.01
2022-10-30T04:38:07.542Z,91.93
2022-10-30T04:40:38.313Z,91.44
2022-10-30T04:43:06.716Z,91.73
2022-10-30T04:45:34.546Z,92.22
2022-10-30T04:48:03.636Z,92.29
2022-10-30T04:50:31.762Z,91.96
2022-10-30T04:53:00.397Z,91.73
2022-10-30T04:55:28.308Z,91.72
2022-10-30T04:57:58.655Z,92.48
2022-10-30T05:00:27.767Z,91.96
2022-10-30T05:02:55.173Z,91.50
2022-10-30T05:05:22.570Z,91.97
2022-10-30T05:07:49.952Z,91.68
2022-10-30T05:10:18.354Z,92.43
2022-10-30T05:12:46.627Z,91.71
2022-10-30T05:15:15.741Z,93.32
2022-10-30T05:17:43.171Z,92.55
2022-10-30T05:20:14.793Z,93.10
2022-10-30T05:22:45.266Z,93.39
2022-10-30T05:25:12.682Z,93.09
2022-10-30T05:27:40.059Z,93.49
2022-10-30T05:30:08.662Z,93.48
2022-10-30T05:32:37.392Z,92.88
2022-10-30T05:35:05.419Z,92.32
2022-10-30T05:37:33.031Z,91.75
2022-10-30T05:40:00.385Z,98.78
2022-10-30T05:42:27.786Z,97.63
2022-10-30T05:45:00.791Z,90.72
2022-10-30T05:47:28.750Z,89.20
2022-10-30T05:49:57.425Z,90.81
2022-10-30T05:52:24.811Z,96.65
2022-10-30T05:54:52.202Z,95.29
2022-10-30T05:57:19.635Z,92.54
2022-10-30T05:59:47.019Z,91.25
2022-10-30T06:02:14.522Z,89.83
2022-10-30T06:04:41.927Z,89.48
2022-10-30T06:07:11.253Z,90.46
2022-10-30T06:09:38.646Z,89.43
2022-10-30T06:12:06.327Z,88.94
2022-10-30T06:14:33.714Z,88.22
2022-10-30T06:17:01.090Z,88.69
2022-10-30T06:19:28.466Z,89.00
2022-10-30T06:21:55.887Z,88.87
2022-10-30T06:24:24.581Z,89.79
2022-10-30T06:26:51.965Z,89.56
2022-10-30T06:29:19.387Z,90.28
2022-10-30T06:31:46.833Z,90.07
2022-10-30T06:34:14.223Z,89.37
2022-10-30T06:36:41.683Z,89.42
2022-10-30T06:39:09.120Z,88.87
2022-10-30T06:41:37.939Z,87.32
2022-10-30T06:44:05.558Z,86.81
2022-10-30T06:46:33.927Z,88.10
2022-10-30T06:49:01.495Z,89.66
2022-10-30T06:51:29.182Z,91.80
2022-10-30T06:53:56.574Z,89.59
2022-10-30T06:56:23.934Z,88.59
2022-10-30T06:58:52.838Z,87.87
2022-10-30T07:01:20.320Z,87.38
2022-10-30T07:03:47.724Z,87.26
2022-10-30T07:06:15.177Z,86.62
2022-10-30T07:08:42.581Z,86.14
2022-10-30T07:11:10.022Z,85.71
2022-10-30T07:13:37.414Z,84.93
2022-10-30T07:16:06.640Z,85.54
2022-10-30T07:18:34.023Z,85.56
2022-10-30T07:21:01.393Z,85.58
2022-10-30T07:23:28.769Z,85.24
2022-10-30T07:26:00.874Z,85.34
2022-10-30T07:28:31.538Z,85.66
2022-10-30T07:30:59.030Z,87.21
2022-10-30T07:33:27.770Z,86.66
2022-10-30T07:35:55.172Z,86.34
2022-10-30T07:38:22.609Z,85.77
2022-10-30T07:40:53.322Z,84.60
2022-10-30T07:43:20.788Z,84.66
2022-10-30T07:45:48.178Z,86.88
2022-10-30T07:48:15.559Z,86.44
2022-10-30T07:50:44.228Z,85.51
2022-10-30T07:53:11.687Z,84.47
2022-10-30T07:55:39.065Z,85.67
2022-10-30T07:58:06.437Z,84.31
2022-10-30T08:00:33.971Z,84.49
2022-10-30T08:03:01.862Z,84.34
2022-10-30T08:05:30.406Z,83.78
2022-10-30T08:07:59.583Z,83.74
2022-10-30T08:10:27.301Z,83.18
2022-10-30T08:12:54.795Z,83.10
2022-10-30T08:15:22.274Z,83.43
2022-10-30T08:17:51.882Z,83.14
2022-10-30T08:20:20.866Z,83.48
2022-10-30T08:22:49.330Z,83.38
2022-10-30T08:25:19.858Z,82.92
2022-10-30T08:27:52.320Z,82.84
2022-10-30T08:30:20.070Z,83.13
2022-10-30T08:32:47.511Z,83.38
2022-10-30T08:35:19.818Z,83.52
2022-10-30T08:37:47.766Z,83.58
2022-10-30T08:40:15.410Z,85.87
2022-10-30T08:42:44.180Z,83.63
2022-10-30T08:45:11.874Z,85.97
2022-10-30T08:47:39.288Z,85.14
2022-10-30T08:50:07.003Z,87.62
2022-10-30T08:52:34.437Z,84.65
2022-10-30T08:55:01.813Z,83.44
2022-10-30T08:57:29.573Z,83.84
2022-10-30T08:59:58.252Z,81.50
2022-10-30T09:02:25.743Z,80.84
2022-10-30T09:04:53.194Z,81.24
2022-10-30T09:07:20.654Z,80.51
2022-10-30T09:09:48.163Z,80.96
2022-10-30T09:12:16.207Z,80.15
2022-10-30T09:14:43.619Z,77.92
2022-10-30T09:17:12.576Z,79.78
2022-10-30T09:19:40.302Z,77.94
2022-10-30T09:22:07.797Z,77.56
2022-10-30T09:24:35.224Z,78.54
2022-10-30T09:27:02.652Z,77.78
2022-10-30T09:29:31.169Z,79.03
2022-10-30T09:31:58.572Z,78.78
2022-10-30T09:37:00.196Z,76.08
2022-10-30T09:39:29.935Z,77.23
2022-10-30T09:42:16.322Z,76.95
2022-10-30T09:45:23.222Z,76.47
2022-10-30T09:48:01.661Z,77.03
2022-10-30T09:50:35.852Z,75.91
2022-10-30T09:53:16.374Z,76.71
2022-10-30T09:55:51.102Z,77.49
2022-10-30T09:58:28.966Z,76.07
2022-10-30T10:01:09.763Z,75.64
2022-10-30T10:03:50.021Z,75.15
2022-10-30T10:06:21.185Z,75.07
2022-10-30T10:08:53.086Z,75.19
2022-10-30T10:11:25.314Z,75.38
2022-10-30T10:13:58.730Z,74.89
2022-10-30T10:16:30.089Z,74.16
2022-10-30T10:19:01.412Z,75.36
2022-10-30T10:21:33.834Z,74.47
2022-10-30T10:24:04.171Z,74.55
2022-10-30T10:26:42.043Z,73.15
2022-10-30T10:29:34.800Z,74.75
2022-10-30T10:32:25.290Z,73.53
2022-10-30T10:35:05.709Z,74.33
2022-10-30T10:37:41.914Z,74.63
2022-10-30T10:40:27.733Z,74.44
2022-10-30T10:43:08.128Z,72.86
2022-10-30T10:45:47.333Z,72.26
2022-10-30T10:48:38.070Z,73.39
2022-10-30T10:51:11.513Z,71.26
2022-10-30T10:53:45.794Z,70.74
2022-10-30T10:56:14.713Z,71.28
2022-10-30T10:58:50.287Z,70.87
2022-10-30T11:01:23.709Z,69.96
2022-10-30T11:03:57.490Z,70.77
2022-10-30T11:06:28.154Z,69.93
2022-10-30T11:09:12.644Z,71.34
2022-10-30T11:11:40.088Z,70.47
2022-10-30T11:14:14.879Z,70.05
2022-10-30T11:16:55.191Z,71.08
2022-10-30T11:19:23.325Z,70.94
2022-10-30T11:21:54.357Z,70.50
2022-10-30T11:24:31.612Z,69.28
2022-10-30T11:27:00.650Z,69.45
2022-10-30T11:29:30.178Z,69.20
2022-10-30T11:32:03.147Z,69.91
2022-10-30T11:34:34.221Z,68.46
2022-10-30T11:37:02.514Z,68.41
2022-10-30T11:39:33.983Z,69.58
2022-10-30T11:42:05.324Z,69.78
2022-10-30T11:44:38.728Z,68.35
2022-10-30T11:47:07.546Z,68.07
2022-10-30T11:49:42.026Z,67.79
2022-10-30T11:52:11.034Z,68.68
2022-10-30T11:54:44.795Z,68.00
2022-10-30T11:57:22.121Z,68.11
2022-10-30T11:59:51.708Z,67.01
2022-10-30T12:02:30.433Z,66.48
2022-10-30T12:05:02.931Z,68.31
2022-10-30T12:07:33.375Z,68.19
2022-10-30T12:10:04.018Z,68.10
2022-10-30T12:12:37.256Z,68.45
2022-10-30T12:15:20.873Z,70.15
2022-10-30T12:17:52.565Z,68.96
2022-10-30T12:20:20.783Z,69.72
2022-10-30T12:22:48.265Z,69.80
2022-10-30T12:25:25.263Z,70.14
2022-10-30T12:28:00.264Z,68.59
2022-10-30T12:30:31.916Z,67.36
2022-10-30T12:33:03.196Z,69.18
2022-10-30T12:35:41.687Z,68.96
2022-10-30T12:38:16.532Z,67.41
2022-10-30T12:40:51.192Z,66.37
2022-10-30T12:45:52.182Z,66.05
2022-10-30T12:48:26.833Z,65.77
2022-10-30T12:51:10.438Z,67.12
2022-10-30T12:53:43.659Z,67.39
2022-10-30T12:56:17.287Z,68.09
2022-10-30T12:58:51.330Z,67.57
2022-10-30T13:01:26.939Z,67.17
2022-10-30T13:03:58.312Z,66.65
2022-10-30T13:06:31.298Z,66.73
2022-10-30T13:09:09.244Z,68.48
2022-10-30T13:11:45.155Z,67.60
2022-10-30T13:14:17.532Z,67.11
2022-10-30T13:16:50.027Z,66.57
2022-10-30T13:19:17.488Z,65.42
2022-10-30T13:21:52.540Z,67.37
2022-10-30T13:24:24.725Z,67.50
2022-10-30T13:26:59.092Z,68.41
2022-10-30T13:29:30.298Z,67.34
2022-10-30T13:32:15.578Z,66.30
2022-10-30T13:34:53.298Z,66.74
2022-10-30T13:37:28.022Z,66.46
2022-10-30T13:40:06.883Z,66.67
2022-10-30T13:42:52.347Z,65.65
2022-10-30T13:45:36.451Z,66.18
2022-10-30T13:48:12.427Z,66.53
2022-10-30T13:50:55.624Z,65.75
2022-10-30T13:53:27.245Z,65.83
2022-10-30T13:55:56.765Z,66.02
2022-10-30T13:58:32.983Z,66.05
2022-10-30T14:01:06.821Z,66.53
2022-10-30T14:03:54.149Z,66.46
2022-10-30T14:06:33.591Z,66.54
2022-10-30T14:09:13.141Z,67.46
2022-10-30T14:11:40.575Z,67.51
2022-10-30T14:14:30.009Z,67.16
2022-10-30T14:17:13.624Z,67.18
2022-10-30T14:20:18.508Z,66.96
2022-10-30T14:23:09.734Z,66.24
2022-10-30T14:25:37.272Z,66.62
2022-10-30T14:28:05.618Z,65.87
2022-10-30T14:30:36.694Z,67.26
2022-10-30T14:33:04.277Z,67.37
2022-10-30T14:35:40.077Z,67.38
2022-10-30T14:38:25.157Z,67.13
2022-10-30T14:41:23.302Z,67.46
2022-10-30T14:44:01.842Z,67.49
2022-10-30T14:46:38.300Z,67.23
2022-10-30T14:49:27.799Z,67.52
2022-10-30T14:52:08.930Z,66.95
2022-10-30T14:54:42.368Z,67.80
2022-10-30T14:57:21.983Z,67.93
2022-10-30T14:59:49.405Z,67.23
2022-10-30T15:02:29.717Z,67.51
2022-10-30T15:05:15.974Z,67.62
2022-10-30T15:07:51.303Z,68.12
2022-10-30T15:10:26.768Z,67.94
2022-10-30T15:13:06.444Z,67.71
2022-10-30T15:15:34.843Z,68.16
2022-10-30T15:18:08.700Z,68.36
2022-10-30T15:20:38.910Z,68.81
2022-10-30T15:23:10.844Z,69.16
2022-10-30T15:25:51.190Z,69.10
2022-10-30T15:28:35.615Z,69.83
2022-10-30T15:31:05.612Z,69.86
2022-10-30T15:33:37.645Z,69.40
2022-10-30T15:36:05.991Z,70.78
2022-10-30T15:38:33.489Z,70.46
2022-10-30T15:41:03.952Z,71.81
2022-10-30T15:43:34.334Z,73.61
2022-10-30T15:46:01.852Z,74.52
2022-10-30T15:48:32.138Z,74.63
2022-10-30T15:51:04.262Z,74.12
2022-10-30T15:53:39.235Z,73.96
2022-10-30T15:56:13.689Z,73.69
2022-10-30T15:58:50.295Z,73.81
2022-10-30T16:01:26.539Z,74.87
2022-10-30T16:03:55.337Z,75.17
2022-10-30T16:06:27.032Z,75.48
2022-10-30T16:08:54.579Z,74.64
2022-10-30T16:11:22.913Z,74.39
2022-10-30T16:13:50.928Z,75.48
2022-10-30T16:16:23.145Z,75.16
2022-10-30T16:18:51.331Z,74.80
2022-10-30T16:21:22.022Z,76.02
2022-10-30T16:23:53.044Z,76.75
2022-10-30T16:26:27.471Z,77.38
2022-10-30T16:28:54.864Z,77.60
2022-10-30T16:31:24.312Z,78.09
2022-10-30T16:33:52.019Z,78.05
2022-10-30T16:36:20.603Z,77.79
2022-10-30T16:38:49.617Z,78.72
2022-10-30T16:41:25.718Z,78.63
2022-10-30T16:44:17.215Z,78.87
2022-10-30T16:46:49.311Z,78.88
2022-10-30T16:49:19.100Z,79.46
2022-10-30T16:51:47.511Z,79.55
2022-10-30T16:54:24.503Z,79.05
2022-10-30T16:56:55.668Z,79.03
2022-10-30T16:59:31.167Z,78.89
2022-10-30T17:02:05.718Z,78.58
2022-10-30T17:04:35.384Z,79.05
2022-10-30T17:07:08.902Z,78.53
2022-10-30T17:09:38.786Z,78.85
2022-10-30T17:12:15.595Z,79.64
2022-10-30T17:14:49.727Z,79.59
2022-10-30T17:17:28.967Z,79.27
2022-10-30T17:19:58.950Z,79.64
2022-10-30T17:22:27.910Z,79.61
2022-10-30T17:24:55.713Z,79.66
2022-10-30T17:27:31.365Z,79.70
2022-10-30T17:29:59.387Z,80.04
2022-10-30T17:32:28.601Z,80.12
2022-10-30T17:35:01.853Z,80.90
2022-10-30T17:37:29.624Z,80.62
2022-10-30T17:39:57.029Z,80.45
2022-10-30T17:42:24.639Z,80.71
2022-10-30T17:44:53.367Z,81.12
2022-10-30T17:47:21.760Z,81.26
2022-10-30T17:49:50.028Z,81.19
2022-10-30T17:52:20.547Z,81.47
2022-10-30T17:54:47.962Z,81.09
2022-10-30T17:57:16.237Z,82.27
2022-10-30T17:59:44.150Z,81.86
2022-10-30T18:02:15.715Z,81.81
2022-10-30T18:04:43.975Z,81.90
2022-10-30T18:07:11.550Z,82.44
2022-10-30T18:09:39.419Z,82.22
2022-10-30T18:12:08.855Z,82.98
2022-10-30T18:14:36.246Z,82.85
2022-10-30T18:17:03.773Z,83.17
2022-10-30T18:19:32.954Z,82.66
2022-10-30T18:22:00.322Z,82.38
2022-10-30T18:24:27.694Z,81.90
2022-10-30T18:26:55.409Z,82.99
2022-10-30T18:29:22.811Z,82.04
2022-10-30T18:31:50.220Z,82.87
2022-10-30T18:34:21.051Z,82.80
2022-10-30T18:36:50.140Z,83.04
2022-10-30T18:39:17.770Z,83.10
2022-10-30T18:41:47.046Z,82.32
2022-10-30T18:44:16.057Z,83.21
2022-10-30T18:46:44.010Z,83.03
2022-10-30T18:49:11.598Z,83.67
2022-10-30T18:51:39.324Z,83.85
2022-10-30T18:54:14.602Z,84.19
2022-10-30T18:56:42.298Z,85.24
2022-10-30T18:59:09.754Z,84.67
2022-10-30T19:01:38.364Z,84.15
2022-10-30T19:04:09.800Z,84.20
2022-10-30T19:06:38.543Z,84.87
2022-10-30T19:09:06.066Z,84.64
2022-10-30T19:11:37.334Z,83.95
2022-10-30T19:14:10.753Z,85.86
2022-10-30T19:16:38.140Z,85.21
2022-10-30T19:19:05.550Z,85.28
2022-10-30T19:21:34.590Z,85.42
2022-10-30T19:24:03.877Z,85.02
2022-10-30T19:26:31.269Z,84.46
2022-10-30T19:29:00.038Z,85.94
2022-10-30T19:31:27.471Z,85.81
2022-10-30T19:33:57.495Z,85.59
2022-10-30T19:36:30.393Z,85.33
2022-10-30T19:38:58.633Z,83.42
2022-10-30T19:41:27.451Z,84.79
2022-10-30T19:43:55.018Z,85.62
2022-10-30T19:46:23.744Z,86.51
2022-10-30T19:48:59.564Z,86.60
2022-10-30T19:51:27.966Z,86.34
2022-10-30T19:53:55.500Z,85.41
2022-10-30T19:56:23.198Z,85.20
2022-10-30T19:58:51.066Z,85.64
2022-10-30T20:01:18.723Z,85.49
2022-10-30T20:03:47.603Z,85.42
2022-10-30T20:06:16.501Z,85.31
2022-10-30T20:08:44.565Z,85.74
2022-10-30T20:11:11.969Z,85.00
2022-10-30T20:13:39.423Z,85.47
2022-10-30T20:16:07.515Z,84.47
2022-10-30T20:18:36.592Z,86.34
2022-10-30T20:21:08.305Z,87.06
2022-10-30T20:23:36.191Z,89.14
2022-10-30T20:26:06.300Z,89.30
2022-10-30T20:28:36.948Z,87.99
2022-10-30T20:31:05.301Z,88.12
2022-10-30T20:33:32.754Z,91.08
2022-10-30T20:36:00.235Z,92.17
2022-10-30T20:38:31.449Z,88.94
2022-10-30T20:41:00.243Z,88.14
2022-10-30T20:43:30.355Z,87.34
2022-10-30T20:45:58.191Z,89.47
2022-10-30T20:48:25.799Z,90.31
2022-10-30T20:50:53.718Z,90.22
2022-10-30T20:53:21.204Z,88.12
2022-10-30T20:55:49.987Z,87.96
2022-10-30T20:58:17.383Z,88.16
2022-10-30T21:00:48.463Z,88.65
2022-10-30T21:03:16.929Z,86.78
2022-10-30T21:05:46.279Z,87.84
2022-10-30T21:08:14.768Z,87.93
2022-10-30T21:10:42.862Z,88.24
2022-10-30T21:13:11.877Z,89.24
2022-10-30T21:15:40.005Z,89.52
2022-10-30T21:18:07.567Z,89.36
2022-10-30T21:20:35.239Z,90.25
2022-10-30T21:23:02.660Z,90.36
2022-10-30T21:25:32.112Z,89.60
2022-10-30T21:27:59.642Z,89.90
2022-10-30T21:30:29.037Z,89.53
2022-10-30T21:32:56.438Z,88.48
2022-10-30T21:35:23.902Z,88.73
2022-10-30T21:37:51.355Z,89.26
2022-10-30T21:40:18.809Z,89.82
2022-10-30T21:42:48.653Z,90.75
2022-10-30T21:45:16.155Z,90.33
2022-10-30T21:47:44.936Z,89.89
2022-10-30T21:50:13.038Z,89.53
2022-10-30T21:52:40.836Z,90.00
2022-10-30T21:55:08.838Z,90.04
2022-10-30T21:57:36.340Z,91.56
2022-10-30T22:00:06.144Z,90.06
2022-10-30T22:02:34.865Z,90.34
2022-10-30T22:05:03.661Z,90.53
2022-10-30T22:07:31.282Z,90.71
2022-10-30T22:09:58.698Z,90.89
2022-10-30T22:12:26.129Z,91.65
2022-10-30T22:14:53.533Z,91.43
2022-10-30T22:17:20.996Z,91.51
2022-10-30T22:19:48.443Z,90.93
2022-10-30T22:22:17.135Z,91.65
2022-10-30T22:24:44.544Z,91.00
2022-10-30T22:27:11.975Z,90.39
2022-10-30T22:29:39.387Z,90.28
2022-10-30T22:32:06.794Z,90.70
2022-10-30T22:34:34.221Z,90.44
2022-10-30T22:37:01.593Z,90.62
2022-10-30T22:39:30.301Z,90.87
2022-10-30T22:41:57.714Z,91.17
2022-10-30T22:44:25.097Z,91.62
2022-10-30T22:46:52.648Z,91.15
2022-10-30T22:49:20.066Z,92.23
2022-10-30T22:51:47.479Z,91.86
2022-10-30T22:54:14.883Z,92.24
2022-10-30T22:56:43.640Z,90.97
2022-10-30T22:59:13.641Z,90.91
2022-10-30T23:01:41.723Z,90.51
2022-10-30T23:04:11.253Z,90.54
2022-10-30T23:06:38.753Z,91.07
2022-10-30T23:09:08.559Z,92.25
2022-10-30T23:11:35.971Z,91.66
2022-10-30T23:14:04.767Z,92.90
2022-10-30T23:16:32.430Z,90.97
2022-10-30T23:19:02.112Z,91.42
2022-10-30T23:21:31.356Z,90.50
2022-10-30T23:23:59.773Z,91.02
2022-10-30T23:26:30.392Z,91.17
2022-10-30T23:28:59.461Z,91.26
2022-10-30T23:31:30.129Z,91.58
2022-10-30T23:33:59.417Z,91.79
2022-10-30T23:36:27.830Z,91.03
2022-10-30T23:38:56.376Z,91.43
2022-10-30T23:41:25.739Z,92.48
2022-10-30T23:43:54.412Z,91.40
2022-10-30T23:46:21.965Z,91.89
2022-10-30T23:48:51.031Z,91.64
2022-10-30T23:51:19.181Z,92.34
2022-10-30T23:53:46.705Z,92.21
2022-10-30T23:56:14.223Z,92.25
2022-10-30T23:58:43.762Z,92.62
